Terminal Aerodrome Forecast
Issued by NWS

Home | Current Version | Previous Version | Text Only | Print | Product List | Glossary On
Versions: 1 2 3 4 5 6 7 8 9 10 11 12
383
FTUS44 KSJT 281748
TAFBBD
TAF
KBBD 281748Z 2818/2918 16013KT P6SM SKC
     FM291100 15009KT P6SM BKN012
     FM291300 18015KT P6SM FEW025
      AMD NOT SKED=

USA.gov is the U.S. government's official web portal to all federal, state and local government web resources and services.